sensor_id;sensor_type;location;lat;lon;timestamp;temperature;humidity
73939;DHT22;62291;47.554;8.504;2023-12-14T00:01:33;7.10;99.90
73939;DHT22;62291;47.554;8.504;2023-12-14T00:03:59;7.20;99.90
73939;DHT22;62291;47.554;8.504;2023-12-14T00:06:24;7.10;99.90
73939;DHT22;62291;47.554;8.504;2023-12-14T00:08:50;7.20;99.90
73939;DHT22;62291;47.554;8.504;2023-12-14T00:11:16;7.20;99.90
73939;DHT22;62291;47.554;8.504;2023-12-14T00:13:41;7.20;99.90
73939;DHT22;62291;47.554;8.504;2023-12-14T00:16:08;7.20;99.90
73939;DHT22;62291;47.554;8.504;2023-12-14T00:18:34;7.20;99.90
73939;DHT22;62291;47.554;8.504;2023-12-14T00:21:00;7.20;99.90
73939;DHT22;62291;47.554;8.504;2023-12-14T00:23:26;7.20;99.90
73939;DHT22;62291;47.554;8.504;2023-12-14T00:25:51;7.20;99.90
73939;DHT22;62291;47.554;8.504;2023-12-14T00:28:17;7.20;99.90
73939;DHT22;62291;47.554;8.504;2023-12-14T00:30:43;7.20;99.90
73939;DHT22;62291;47.554;8.504;2023-12-14T00:33:09;7.20;99.90
73939;DHT22;62291;47.554;8.504;2023-12-14T00:35:34;7.20;99.90
73939;DHT22;62291;47.554;8.504;2023-12-14T00:38:00;7.20;99.90
73939;DHT22;62291;47.554;8.504;2023-12-14T00:40:25;7.10;99.90
73939;DHT22;62291;47.554;8.504;2023-12-14T00:42:51;7.20;99.90
73939;DHT22;62291;47.554;8.504;2023-12-14T00:45:17;7.20;99.90
73939;DHT22;62291;47.554;8.504;2023-12-14T00:47:43;7.20;99.90
73939;DHT22;62291;47.554;8.504;2023-12-14T00:50:08;7.20;99.90
73939;DHT22;62291;47.554;8.504;2023-12-14T00:52:34;7.20;99.90
73939;DHT22;62291;47.554;8.504;2023-12-14T00:55:00;7.20;99.90
73939;DHT22;62291;47.554;8.504;2023-12-14T00:57:26;7.20;99.90
73939;DHT22;62291;47.554;8.504;2023-12-14T00:59:51;7.20;99.90
73939;DHT22;62291;47.554;8.504;2023-12-14T01:02:17;7.20;99.90
73939;DHT22;62291;47.554;8.504;2023-12-14T01:04:43;7.20;99.90
73939;DHT22;62291;47.554;8.504;2023-12-14T01:07:08;7.20;99.90
73939;DHT22;62291;47.554;8.504;2023-12-14T01:09:35;7.10;99.90
73939;DHT22;62291;47.554;8.504;2023-12-14T01:12:00;7.10;99.90
73939;DHT22;62291;47.554;8.504;2023-12-14T01:14:26;7.20;99.90
73939;DHT22;62291;47.554;8.504;2023-12-14T01:16:51;7.20;99.90
73939;DHT22;62291;47.554;8.504;2023-12-14T01:19:17;7.20;99.90
73939;DHT22;62291;47.554;8.504;2023-12-14T01:21:43;7.20;99.90
73939;DHT22;62291;47.554;8.504;2023-12-14T01:24:08;7.20;99.90
73939;DHT22;62291;47.554;8.504;2023-12-14T01:26:34;7.20;99.90
73939;DHT22;62291;47.554;8.504;2023-12-14T01:29:00;7.10;99.90
73939;DHT22;62291;47.554;8.504;2023-12-14T01:31:26;7.10;99.90
73939;DHT22;62291;47.554;8.504;2023-12-14T01:33:52;7.00;99.90
73939;DHT22;62291;47.554;8.504;2023-12-14T01:36:25;7.00;99.90
73939;DHT22;62291;47.554;8.504;2023-12-14T01:38:51;7.00;99.90
73939;DHT22;62291;47.554;8.504;2023-12-14T01:41:18;7.00;99.90
73939;DHT22;62291;47.554;8.504;2023-12-14T01:43:44;7.00;99.90
73939;DHT22;62291;47.554;8.504;2023-12-14T01:46:10;7.00;99.90
73939;DHT22;62291;47.554;8.504;2023-12-14T01:48:36;7.00;99.90
73939;DHT22;62291;47.554;8.504;2023-12-14T01:51:02;7.00;99.90
73939;DHT22;62291;47.554;8.504;2023-12-14T01:53:28;6.90;99.90
73939;DHT22;62291;47.554;8.504;2023-12-14T01:55:54;7.00;99.90
73939;DHT22;62291;47.554;8.504;2023-12-14T01:58:20;6.90;99.90
73939;DHT22;62291;47.554;8.504;2023-12-14T02:03:29;6.90;99.90
73939;DHT22;62291;47.554;8.504;2023-12-14T02:05:55;6.90;99.90
73939;DHT22;62291;47.554;8.504;2023-12-14T02:08:23;6.90;99.90
73939;DHT22;62291;47.554;8.504;2023-12-14T02:10:49;6.90;99.90
73939;DHT22;62291;47.554;8.504;2023-12-14T02:13:15;6.90;99.90
73939;DHT22;62291;47.554;8.504;2023-12-14T02:15:42;6.90;99.90
73939;DHT22;62291;47.554;8.504;2023-12-14T02:18:08;6.90;99.90
73939;DHT22;62291;47.554;8.504;2023-12-14T02:20:33;6.90;99.90
73939;DHT22;62291;47.554;8.504;2023-12-14T02:22:59;6.90;99.90
73939;DHT22;62291;47.554;8.504;2023-12-14T02:25:25;7.00;99.90
73939;DHT22;62291;47.554;8.504;2023-12-14T02:27:51;7.00;99.90
73939;DHT22;62291;47.554;8.504;2023-12-14T02:30:17;7.00;99.90
73939;DHT22;62291;47.554;8.504;2023-12-14T02:32:44;7.00;99.90
73939;DHT22;62291;47.554;8.504;2023-12-14T02:35:09;7.00;99.90
73939;DHT22;62291;47.554;8.504;2023-12-14T02:37:35;7.00;99.90
73939;DHT22;62291;47.554;8.504;2023-12-14T02:40:06;7.00;99.90
73939;DHT22;62291;47.554;8.504;2023-12-14T02:42:33;7.00;99.90
73939;DHT22;62291;47.554;8.504;2023-12-14T02:44:58;6.90;99.90
73939;DHT22;62291;47.554;8.504;2023-12-14T02:47:24;6.90;99.90
73939;DHT22;62291;47.554;8.504;2023-12-14T02:49:50;6.90;99.90
73939;DHT22;62291;47.554;8.504;2023-12-14T02:52:15;6.90;99.90
73939;DHT22;62291;47.554;8.504;2023-12-14T02:54:41;6.90;99.90
73939;DHT22;62291;47.554;8.504;2023-12-14T02:57:07;6.80;99.90
73939;DHT22;62291;47.554;8.504;2023-12-14T02:59:33;6.80;99.90
73939;DHT22;62291;47.554;8.504;2023-12-14T03:01:59;6.80;99.90
73939;DHT22;62291;47.554;8.504;2023-12-14T03:04:25;6.80;99.90
73939;DHT22;62291;47.554;8.504;2023-12-14T03:06:51;6.70;99.90
73939;DHT22;62291;47.554;8.504;2023-12-14T03:09:16;6.70;99.90
73939;DHT22;62291;47.554;8.504;2023-12-14T03:11:44;6.70;99.90
73939;DHT22;62291;47.554;8.504;2023-12-14T03:14:10;6.70;99.90
73939;DHT22;62291;47.554;8.504;2023-12-14T03:16:36;6.70;99.90
73939;DHT22;62291;47.554;8.504;2023-12-14T03:19:02;6.60;99.90
73939;DHT22;62291;47.554;8.504;2023-12-14T03:21:29;6.70;99.90
73939;DHT22;62291;47.554;8.504;2023-12-14T03:23:54;6.70;99.90
73939;DHT22;62291;47.554;8.504;2023-12-14T03:26:20;6.70;99.90
73939;DHT22;62291;47.554;8.504;2023-12-14T03:28:46;6.70;99.90
73939;DHT22;62291;47.554;8.504;2023-12-14T03:31:12;6.70;99.90
73939;DHT22;62291;47.554;8.504;2023-12-14T03:33:38;6.70;99.90
73939;DHT22;62291;47.554;8.504;2023-12-14T03:36:04;6.70;99.90
73939;DHT22;62291;47.554;8.504;2023-12-14T03:38:31;6.70;99.90
73939;DHT22;62291;47.554;8.504;2023-12-14T03:40:57;6.70;99.90
73939;DHT22;62291;47.554;8.504;2023-12-14T03:43:23;6.70;99.90
73939;DHT22;62291;47.554;8.504;2023-12-14T03:45:48;6.70;99.90
73939;DHT22;62291;47.554;8.504;2023-12-14T03:48:14;6.70;99.90
73939;DHT22;62291;47.554;8.504;2023-12-14T03:50:40;6.60;99.90
73939;DHT22;62291;47.554;8.504;2023-12-14T03:53:06;6.60;99.90
73939;DHT22;62291;47.554;8.504;2023-12-14T03:55:32;6.60;99.90
73939;DHT22;62291;47.554;8.504;2023-12-14T03:57:58;6.60;99.90
73939;DHT22;62291;47.554;8.504;2023-12-14T04:00:24;6.70;99.90
73939;DHT22;62291;47.554;8.504;2023-12-14T04:02:50;6.60;99.90
73939;DHT22;62291;47.554;8.504;2023-12-14T04:05:16;6.60;99.90
73939;DHT22;62291;47.554;8.504;2023-12-14T04:07:42;6.60;99.90
73939;DHT22;62291;47.554;8.504;2023-12-14T04:10:11;6.60;99.90
73939;DHT22;62291;47.554;8.504;2023-12-14T04:12:38;6.60;99.90
73939;DHT22;62291;47.554;8.504;2023-12-14T04:15:05;6.70;99.90
73939;DHT22;62291;47.554;8.504;2023-12-14T04:17:32;6.60;99.90
73939;DHT22;62291;47.554;8.504;2023-12-14T04:19:58;6.70;99.90
73939;DHT22;62291;47.554;8.504;2023-12-14T04:22:23;6.60;99.90
73939;DHT22;62291;47.554;8.504;2023-12-14T04:24:50;6.70;99.90
73939;DHT22;62291;47.554;8.504;2023-12-14T04:27:16;6.70;99.90
73939;DHT22;62291;47.554;8.504;2023-12-14T04:29:42;6.70;99.90
73939;DHT22;62291;47.554;8.504;2023-12-14T04:32:08;6.70;99.90
73939;DHT22;62291;47.554;8.504;2023-12-14T04:34:34;6.70;99.90
73939;DHT22;62291;47.554;8.504;2023-12-14T04:36:59;6.70;99.90
73939;DHT22;62291;47.554;8.504;2023-12-14T04:39:25;6.70;99.90
73939;DHT22;62291;47.554;8.504;2023-12-14T04:41:52;6.70;99.90
73939;DHT22;62291;47.554;8.504;2023-12-14T04:44:18;6.80;99.90
73939;DHT22;62291;47.554;8.504;2023-12-14T04:46:44;6.80;99.90
73939;DHT22;62291;47.554;8.504;2023-12-14T04:49:10;6.80;99.90
73939;DHT22;62291;47.554;8.504;2023-12-14T04:51:36;6.80;99.90
73939;DHT22;62291;47.554;8.504;2023-12-14T04:54:02;6.80;99.90
73939;DHT22;62291;47.554;8.504;2023-12-14T04:56:28;6.80;99.90
73939;DHT22;62291;47.554;8.504;2023-12-14T04:58:53;6.80;99.90
73939;DHT22;62291;47.554;8.504;2023-12-14T05:01:19;6.80;99.90
73939;DHT22;62291;47.554;8.504;2023-12-14T05:03:45;6.90;99.90
73939;DHT22;62291;47.554;8.504;2023-12-14T05:06:10;6.90;99.90
73939;DHT22;62291;47.554;8.504;2023-12-14T05:08:36;6.90;99.90
73939;DHT22;62291;47.554;8.504;2023-12-14T05:11:02;6.90;99.90
73939;DHT22;62291;47.554;8.504;2023-12-14T05:13:28;6.90;99.90
73939;DHT22;62291;47.554;8.504;2023-12-14T05:15:54;6.90;99.90
73939;DHT22;62291;47.554;8.504;2023-12-14T05:18:19;6.90;99.90
73939;DHT22;62291;47.554;8.504;2023-12-14T05:20:45;6.90;99.90
73939;DHT22;62291;47.554;8.504;2023-12-14T05:23:12;6.90;99.90
73939;DHT22;62291;47.554;8.504;2023-12-14T05:25:38;7.00;99.90
73939;DHT22;62291;47.554;8.504;2023-12-14T05:28:03;6.90;99.90
73939;DHT22;62291;47.554;8.504;2023-12-14T05:30:30;7.00;99.90
73939;DHT22;62291;47.554;8.504;2023-12-14T05:32:55;7.00;99.90
73939;DHT22;62291;47.554;8.504;2023-12-14T05:35:21;7.00;99.90
73939;DHT22;62291;47.554;8.504;2023-12-14T05:37:47;7.00;99.90
73939;DHT22;62291;47.554;8.504;2023-12-14T05:40:13;7.00;99.90
73939;DHT22;62291;47.554;8.504;2023-12-14T05:42:39;7.00;99.90
73939;DHT22;62291;47.554;8.504;2023-12-14T05:45:05;7.00;99.90
73939;DHT22;62291;47.554;8.504;2023-12-14T05:47:32;7.00;99.90
73939;DHT22;62291;47.554;8.504;2023-12-14T05:49:59;6.90;99.90
73939;DHT22;62291;47.554;8.504;2023-12-14T05:52:25;6.90;99.90
73939;DHT22;62291;47.554;8.504;2023-12-14T05:54:51;6.90;99.90
73939;DHT22;62291;47.554;8.504;2023-12-14T05:57:16;6.90;99.90
73939;DHT22;62291;47.554;8.504;2023-12-14T05:59:42;6.90;99.90
73939;DHT22;62291;47.554;8.504;2023-12-14T06:02:08;6.90;99.90
73939;DHT22;62291;47.554;8.504;2023-12-14T06:04:34;6.90;99.90
73939;DHT22;62291;47.554;8.504;2023-12-14T06:06:59;6.80;99.90
73939;DHT22;62291;47.554;8.504;2023-12-14T06:09:25;6.90;99.90
73939;DHT22;62291;47.554;8.504;2023-12-14T06:12:02;6.90;99.90
73939;DHT22;62291;47.554;8.504;2023-12-14T06:14:28;6.80;99.90
73939;DHT22;62291;47.554;8.504;2023-12-14T06:16:54;6.80;99.90
73939;DHT22;62291;47.554;8.504;2023-12-14T06:19:20;6.80;99.90
73939;DHT22;62291;47.554;8.504;2023-12-14T06:21:45;6.80;99.90
73939;DHT22;62291;47.554;8.504;2023-12-14T06:24:11;6.80;99.90
73939;DHT22;62291;47.554;8.504;2023-12-14T06:26:45;6.80;99.90
73939;DHT22;62291;47.554;8.504;2023-12-14T06:29:11;6.80;99.90
73939;DHT22;62291;47.554;8.504;2023-12-14T06:31:38;6.80;99.90
73939;DHT22;62291;47.554;8.504;2023-12-14T06:34:05;6.90;99.90
73939;DHT22;62291;47.554;8.504;2023-12-14T06:36:31;6.90;99.90
73939;DHT22;62291;47.554;8.504;2023-12-14T06:38:57;6.90;99.90
73939;DHT22;62291;47.554;8.504;2023-12-14T06:41:25;6.90;99.90
73939;DHT22;62291;47.554;8.504;2023-12-14T06:43:51;6.90;99.90
73939;DHT22;62291;47.554;8.504;2023-12-14T06:46:17;6.90;99.90
73939;DHT22;62291;47.554;8.504;2023-12-14T06:48:44;6.90;99.90
73939;DHT22;62291;47.554;8.504;2023-12-14T06:51:10;6.90;99.90
73939;DHT22;62291;47.554;8.504;2023-12-14T06:53:35;6.90;99.90
73939;DHT22;62291;47.554;8.504;2023-12-14T06:56:04;6.90;99.90
73939;DHT22;62291;47.554;8.504;2023-12-14T06:58:30;6.90;99.90
73939;DHT22;62291;47.554;8.504;2023-12-14T07:00:57;6.90;99.90
73939;DHT22;62291;47.554;8.504;2023-12-14T07:03:22;6.90;99.90
73939;DHT22;62291;47.554;8.504;2023-12-14T07:05:48;6.90;99.90
73939;DHT22;62291;47.554;8.504;2023-12-14T07:08:14;6.90;99.90
73939;DHT22;62291;47.554;8.504;2023-12-14T07:10:41;6.90;99.90
73939;DHT22;62291;47.554;8.504;2023-12-14T07:13:08;6.90;99.90
73939;DHT22;62291;47.554;8.504;2023-12-14T07:15:34;6.90;99.90
73939;DHT22;62291;47.554;8.504;2023-12-14T07:17:59;6.90;99.90
73939;DHT22;62291;47.554;8.504;2023-12-14T07:20:25;6.90;99.90
73939;DHT22;62291;47.554;8.504;2023-12-14T07:22:51;7.00;99.90
73939;DHT22;62291;47.554;8.504;2023-12-14T07:25:16;6.90;99.90
73939;DHT22;62291;47.554;8.504;2023-12-14T07:27:42;7.00;99.90
73939;DHT22;62291;47.554;8.504;2023-12-14T07:30:09;7.00;99.90
73939;DHT22;62291;47.554;8.504;2023-12-14T07:32:35;7.00;99.90
73939;DHT22;62291;47.554;8.504;2023-12-14T07:35:01;7.10;99.90
73939;DHT22;62291;47.554;8.504;2023-12-14T07:37:26;7.10;99.90
73939;DHT22;62291;47.554;8.504;2023-12-14T07:39:52;7.10;99.90
73939;DHT22;62291;47.554;8.504;2023-12-14T07:42:18;7.10;99.90
73939;DHT22;62291;47.554;8.504;2023-12-14T07:44:47;7.20;99.90
73939;DHT22;62291;47.554;8.504;2023-12-14T07:47:12;7.20;99.90
73939;DHT22;62291;47.554;8.504;2023-12-14T07:49:39;7.20;99.90
73939;DHT22;62291;47.554;8.504;2023-12-14T07:52:05;7.30;99.90
73939;DHT22;62291;47.554;8.504;2023-12-14T07:54:30;7.30;99.90
73939;DHT22;62291;47.554;8.504;2023-12-14T07:56:57;7.30;99.90
73939;DHT22;62291;47.554;8.504;2023-12-14T07:59:22;7.30;99.90
73939;DHT22;62291;47.554;8.504;2023-12-14T08:01:48;7.30;99.90
73939;DHT22;62291;47.554;8.504;2023-12-14T08:04:14;7.30;99.90
73939;DHT22;62291;47.554;8.504;2023-12-14T08:06:40;7.30;99.90
73939;DHT22;62291;47.554;8.504;2023-12-14T08:09:06;7.40;99.90
73939;DHT22;62291;47.554;8.504;2023-12-14T08:11:32;7.40;99.90
73939;DHT22;62291;47.554;8.504;2023-12-14T08:13:58;7.40;99.90
73939;DHT22;62291;47.554;8.504;2023-12-14T08:16:24;7.40;99.90
73939;DHT22;62291;47.554;8.504;2023-12-14T08:18:49;7.50;99.90
73939;DHT22;62291;47.554;8.504;2023-12-14T08:21:16;7.50;99.90
73939;DHT22;62291;47.554;8.504;2023-12-14T08:23:42;7.50;99.90
73939;DHT22;62291;47.554;8.504;2023-12-14T08:26:08;7.50;99.90
73939;DHT22;62291;47.554;8.504;2023-12-14T08:28:36;7.50;99.90
73939;DHT22;62291;47.554;8.504;2023-12-14T08:31:02;7.50;99.90
73939;DHT22;62291;47.554;8.504;2023-12-14T08:33:31;7.50;99.90
73939;DHT22;62291;47.554;8.504;2023-12-14T08:35:57;7.50;99.90
73939;DHT22;62291;47.554;8.504;2023-12-14T08:38:23;7.60;99.90
73939;DHT22;62291;47.554;8.504;2023-12-14T08:40:50;7.60;99.90
73939;DHT22;62291;47.554;8.504;2023-12-14T08:43:16;7.60;99.90
73939;DHT22;62291;47.554;8.504;2023-12-14T08:45:42;7.70;99.90
73939;DHT22;62291;47.554;8.504;2023-12-14T08:48:08;7.70;99.90
73939;DHT22;62291;47.554;8.504;2023-12-14T08:50:33;7.80;99.90
73939;DHT22;62291;47.554;8.504;2023-12-14T08:52:59;7.80;99.90
73939;DHT22;62291;47.554;8.504;2023-12-14T08:55:25;7.90;99.90
73939;DHT22;62291;47.554;8.504;2023-12-14T08:57:52;7.90;99.90
73939;DHT22;62291;47.554;8.504;2023-12-14T09:00:18;7.90;99.90
73939;DHT22;62291;47.554;8.504;2023-12-14T09:02:44;7.90;99.90
73939;DHT22;62291;47.554;8.504;2023-12-14T09:05:14;8.00;99.90
73939;DHT22;62291;47.554;8.504;2023-12-14T09:07:41;8.00;99.90
73939;DHT22;62291;47.554;8.504;2023-12-14T09:10:07;8.00;99.90
73939;DHT22;62291;47.554;8.504;2023-12-14T09:12:34;7.90;99.90
73939;DHT22;62291;47.554;8.504;2023-12-14T09:15:00;7.90;99.90
73939;DHT22;62291;47.554;8.504;2023-12-14T09:17:26;7.90;99.90
73939;DHT22;62291;47.554;8.504;2023-12-14T09:20:00;7.90;99.90
73939;DHT22;62291;47.554;8.504;2023-12-14T09:22:26;7.90;99.90
73939;DHT22;62291;47.554;8.504;2023-12-14T09:24:52;7.80;99.90
73939;DHT22;62291;47.554;8.504;2023-12-14T09:27:18;7.90;99.90
73939;DHT22;62291;47.554;8.504;2023-12-14T09:29:44;7.90;99.90
73939;DHT22;62291;47.554;8.504;2023-12-14T09:32:09;7.90;99.90
73939;DHT22;62291;47.554;8.504;2023-12-14T09:34:35;8.00;99.90
73939;DHT22;62291;47.554;8.504;2023-12-14T09:37:01;8.10;99.90
73939;DHT22;62291;47.554;8.504;2023-12-14T09:39:27;8.10;99.90
73939;DHT22;62291;47.554;8.504;2023-12-14T09:42:05;8.20;99.90
73939;DHT22;62291;47.554;8.504;2023-12-14T09:44:32;8.30;99.90
73939;DHT22;62291;47.554;8.504;2023-12-14T09:47:01;8.30;99.90
73939;DHT22;62291;47.554;8.504;2023-12-14T09:49:30;8.30;99.90
73939;DHT22;62291;47.554;8.504;2023-12-14T09:51:56;8.40;99.90
73939;DHT22;62291;47.554;8.504;2023-12-14T09:54:22;8.30;99.90
73939;DHT22;62291;47.554;8.504;2023-12-14T09:56:49;8.30;99.90
73939;DHT22;62291;47.554;8.504;2023-12-14T09:59:15;8.20;99.90
73939;DHT22;62291;47.554;8.504;2023-12-14T10:01:42;8.20;99.90
73939;DHT22;62291;47.554;8.504;2023-12-14T10:04:10;8.20;99.90
73939;DHT22;62291;47.554;8.504;2023-12-14T10:06:36;8.30;99.90
73939;DHT22;62291;47.554;8.504;2023-12-14T10:09:02;8.40;99.90
73939;DHT22;62291;47.554;8.504;2023-12-14T10:11:29;8.40;99.90
73939;DHT22;62291;47.554;8.504;2023-12-14T10:13:55;8.40;99.90
73939;DHT22;62291;47.554;8.504;2023-12-14T10:16:32;8.50;99.90
73939;DHT22;62291;47.554;8.504;2023-12-14T10:18:59;8.50;99.90
73939;DHT22;62291;47.554;8.504;2023-12-14T10:21:26;8.50;99.90
73939;DHT22;62291;47.554;8.504;2023-12-14T10:23:55;8.60;99.90
73939;DHT22;62291;47.554;8.504;2023-12-14T10:26:23;8.60;99.90
73939;DHT22;62291;47.554;8.504;2023-12-14T10:28:50;8.70;99.90
73939;DHT22;62291;47.554;8.504;2023-12-14T10:31:17;8.70;99.90
73939;DHT22;62291;47.554;8.504;2023-12-14T10:33:44;8.60;99.90
73939;DHT22;62291;47.554;8.504;2023-12-14T10:36:09;8.50;99.90
73939;DHT22;62291;47.554;8.504;2023-12-14T10:38:37;8.40;99.90
73939;DHT22;62291;47.554;8.504;2023-12-14T10:41:04;8.40;99.90
73939;DHT22;62291;47.554;8.504;2023-12-14T10:43:30;8.50;99.90
73939;DHT22;62291;47.554;8.504;2023-12-14T10:45:59;8.40;99.90
73939;DHT22;62291;47.554;8.504;2023-12-14T10:48:25;8.50;99.90
73939;DHT22;62291;47.554;8.504;2023-12-14T10:50:51;8.40;99.90
73939;DHT22;62291;47.554;8.504;2023-12-14T10:53:18;8.40;99.90
73939;DHT22;62291;47.554;8.504;2023-12-14T10:55:45;8.40;99.90
73939;DHT22;62291;47.554;8.504;2023-12-14T10:58:11;8.40;99.90
73939;DHT22;62291;47.554;8.504;2023-12-14T11:00:38;8.40;99.90
73939;DHT22;62291;47.554;8.504;2023-12-14T11:03:04;8.40;99.90
73939;DHT22;62291;47.554;8.504;2023-12-14T11:05:32;8.40;99.90
73939;DHT22;62291;47.554;8.504;2023-12-14T11:08:05;8.50;99.90
73939;DHT22;62291;47.554;8.504;2023-12-14T11:10:41;8.50;99.90
73939;DHT22;62291;47.554;8.504;2023-12-14T11:13:11;8.50;99.90
73939;DHT22;62291;47.554;8.504;2023-12-14T11:15:41;8.40;99.90
73939;DHT22;62291;47.554;8.504;2023-12-14T11:25:58;8.10;99.90
73939;DHT22;62291;47.554;8.504;2023-12-14T11:28:24;8.10;99.90
73939;DHT22;62291;47.554;8.504;2023-12-14T11:30:50;8.10;99.90
73939;DHT22;62291;47.554;8.504;2023-12-14T11:33:16;8.10;99.90
73939;DHT22;62291;47.554;8.504;2023-12-14T11:35:42;8.10;99.90
73939;DHT22;62291;47.554;8.504;2023-12-14T11:38:08;8.10;99.90
73939;DHT22;62291;47.554;8.504;2023-12-14T11:40:42;8.10;99.90
73939;DHT22;62291;47.554;8.504;2023-12-14T11:43:08;8.10;99.90
73939;DHT22;62291;47.554;8.504;2023-12-14T11:45:39;8.10;99.90
73939;DHT22;62291;47.554;8.504;2023-12-14T11:48:07;8.10;99.90
73939;DHT22;62291;47.554;8.504;2023-12-14T11:50:32;8.20;99.90
73939;DHT22;62291;47.554;8.504;2023-12-14T11:53:01;8.20;99.90
73939;DHT22;62291;47.554;8.504;2023-12-14T11:55:31;8.20;99.90
73939;DHT22;62291;47.554;8.504;2023-12-14T11:57:58;8.20;99.90
73939;DHT22;62291;47.554;8.504;2023-12-14T12:00:26;8.20;99.90
73939;DHT22;62291;47.554;8.504;2023-12-14T12:02:52;8.10;99.90
73939;DHT22;62291;47.554;8.504;2023-12-14T12:05:18;8.20;99.90
73939;DHT22;62291;47.554;8.504;2023-12-14T12:07:45;8.20;99.90
73939;DHT22;62291;47.554;8.504;2023-12-14T12:10:11;8.20;99.90
73939;DHT22;62291;47.554;8.504;2023-12-14T12:12:37;8.20;99.90
73939;DHT22;62291;47.554;8.504;2023-12-14T12:15:04;8.20;99.90
73939;DHT22;62291;47.554;8.504;2023-12-14T12:17:30;8.30;99.90
73939;DHT22;62291;47.554;8.504;2023-12-14T12:20:04;8.30;99.90
73939;DHT22;62291;47.554;8.504;2023-12-14T12:22:30;8.30;99.90
73939;DHT22;62291;47.554;8.504;2023-12-14T12:24:55;8.40;99.90
73939;DHT22;62291;47.554;8.504;2023-12-14T12:27:22;8.30;99.90
73939;DHT22;62291;47.554;8.504;2023-12-14T12:29:48;8.40;99.90
73939;DHT22;62291;47.554;8.504;2023-12-14T12:32:15;8.50;99.90
73939;DHT22;62291;47.554;8.504;2023-12-14T12:34:41;8.60;99.90
73939;DHT22;62291;47.554;8.504;2023-12-14T12:37:07;8.60;99.90
73939;DHT22;62291;47.554;8.504;2023-12-14T12:39:32;8.60;99.90
73939;DHT22;62291;47.554;8.504;2023-12-14T12:41:58;8.60;99.90
73939;DHT22;62291;47.554;8.504;2023-12-14T12:44:23;8.60;99.90
73939;DHT22;62291;47.554;8.504;2023-12-14T12:46:49;8.60;99.90
73939;DHT22;62291;47.554;8.504;2023-12-14T12:49:14;8.60;99.90
73939;DHT22;62291;47.554;8.504;2023-12-14T12:51:40;8.60;99.90
73939;DHT22;62291;47.554;8.504;2023-12-14T12:54:06;8.60;99.90
73939;DHT22;62291;47.554;8.504;2023-12-14T12:56:31;8.60;99.90
73939;DHT22;62291;47.554;8.504;2023-12-14T12:58:57;8.60;99.90
73939;DHT22;62291;47.554;8.504;2023-12-14T13:01:23;8.60;99.90
73939;DHT22;62291;47.554;8.504;2023-12-14T13:03:53;8.70;99.90
73939;DHT22;62291;47.554;8.504;2023-12-14T13:06:20;8.80;99.90
73939;DHT22;62291;47.554;8.504;2023-12-14T13:08:46;8.80;99.90
73939;DHT22;62291;47.554;8.504;2023-12-14T13:11:12;8.80;99.90
73939;DHT22;62291;47.554;8.504;2023-12-14T13:13:37;9.00;99.90
73939;DHT22;62291;47.554;8.504;2023-12-14T13:16:03;8.90;99.90
73939;DHT22;62291;47.554;8.504;2023-12-14T13:18:29;8.90;99.90
73939;DHT22;62291;47.554;8.504;2023-12-14T13:20:54;9.00;99.90
73939;DHT22;62291;47.554;8.504;2023-12-14T13:23:20;8.90;99.90
73939;DHT22;62291;47.554;8.504;2023-12-14T13:25:46;9.00;99.90
73939;DHT22;62291;47.554;8.504;2023-12-14T13:28:11;9.00;99.90
73939;DHT22;62291;47.554;8.504;2023-12-14T13:30:37;9.00;99.90
73939;DHT22;62291;47.554;8.504;2023-12-14T13:33:03;9.00;99.90
73939;DHT22;62291;47.554;8.504;2023-12-14T13:35:29;9.00;99.90
73939;DHT22;62291;47.554;8.504;2023-12-14T13:37:55;9.10;99.90
73939;DHT22;62291;47.554;8.504;2023-12-14T13:40:20;9.00;99.90
73939;DHT22;62291;47.554;8.504;2023-12-14T13:42:46;8.90;99.90
73939;DHT22;62291;47.554;8.504;2023-12-14T13:45:12;8.90;99.90
73939;DHT22;62291;47.554;8.504;2023-12-14T13:47:38;8.90;99.90
73939;DHT22;62291;47.554;8.504;2023-12-14T13:50:04;8.80;99.90
73939;DHT22;62291;47.554;8.504;2023-12-14T13:52:30;8.80;99.90
73939;DHT22;62291;47.554;8.504;2023-12-14T13:54:56;8.70;99.90
73939;DHT22;62291;47.554;8.504;2023-12-14T13:57:22;8.70;99.90
73939;DHT22;62291;47.554;8.504;2023-12-14T13:59:48;8.80;99.90
73939;DHT22;62291;47.554;8.504;2023-12-14T14:02:13;8.80;99.90
73939;DHT22;62291;47.554;8.504;2023-12-14T14:04:39;8.70;99.90
73939;DHT22;62291;47.554;8.504;2023-12-14T14:07:04;8.70;99.90
73939;DHT22;62291;47.554;8.504;2023-12-14T14:09:30;8.60;99.90
73939;DHT22;62291;47.554;8.504;2023-12-14T14:11:56;8.70;99.90
73939;DHT22;62291;47.554;8.504;2023-12-14T14:14:21;8.70;99.90
73939;DHT22;62291;47.554;8.504;2023-12-14T14:16:48;8.60;99.90
73939;DHT22;62291;47.554;8.504;2023-12-14T14:19:14;8.70;99.90
73939;DHT22;62291;47.554;8.504;2023-12-14T14:21:40;8.70;99.90
73939;DHT22;62291;47.554;8.504;2023-12-14T14:24:06;8.60;99.90
73939;DHT22;62291;47.554;8.504;2023-12-14T14:26:32;8.50;99.90
73939;DHT22;62291;47.554;8.504;2023-12-14T14:28:57;8.50;99.90
73939;DHT22;62291;47.554;8.504;2023-12-14T14:31:27;8.50;99.90
73939;DHT22;62291;47.554;8.504;2023-12-14T14:34:00;8.40;99.90
73939;DHT22;62291;47.554;8.504;2023-12-14T14:36:25;8.30;99.90
73939;DHT22;62291;47.554;8.504;2023-12-14T14:38:51;8.30;99.90
73939;DHT22;62291;47.554;8.504;2023-12-14T14:41:19;8.30;99.90
73939;DHT22;62291;47.554;8.504;2023-12-14T14:43:45;8.20;99.90
73939;DHT22;62291;47.554;8.504;2023-12-14T14:46:11;8.20;99.90
73939;DHT22;62291;47.554;8.504;2023-12-14T14:48:37;8.20;99.90
73939;DHT22;62291;47.554;8.504;2023-12-14T14:51:03;8.10;99.90
73939;DHT22;62291;47.554;8.504;2023-12-14T14:53:29;8.10;99.90
73939;DHT22;62291;47.554;8.504;2023-12-14T14:55:55;8.10;99.90
73939;DHT22;62291;47.554;8.504;2023-12-14T14:58:22;8.00;99.90
73939;DHT22;62291;47.554;8.504;2023-12-14T15:00:47;8.00;99.90
73939;DHT22;62291;47.554;8.504;2023-12-14T15:03:13;7.90;99.90
73939;DHT22;62291;47.554;8.504;2023-12-14T15:05:40;7.80;99.90
73939;DHT22;62291;47.554;8.504;2023-12-14T15:08:06;7.80;99.90
73939;DHT22;62291;47.554;8.504;2023-12-14T15:10:32;7.60;99.90
73939;DHT22;62291;47.554;8.504;2023-12-14T15:12:58;7.50;99.90
73939;DHT22;62291;47.554;8.504;2023-12-14T15:15:24;7.50;99.90
73939;DHT22;62291;47.554;8.504;2023-12-14T15:17:49;7.30;99.90
73939;DHT22;62291;47.554;8.504;2023-12-14T15:20:15;7.30;99.90
73939;DHT22;62291;47.554;8.504;2023-12-14T15:22:40;7.20;99.90
73939;DHT22;62291;47.554;8.504;2023-12-14T15:25:07;7.10;99.90
73939;DHT22;62291;47.554;8.504;2023-12-14T15:27:33;7.10;99.90
73939;DHT22;62291;47.554;8.504;2023-12-14T15:29:59;7.10;99.90
73939;DHT22;62291;47.554;8.504;2023-12-14T15:32:25;7.10;99.90
73939;DHT22;62291;47.554;8.504;2023-12-14T15:34:51;7.10;99.90
73939;DHT22;62291;47.554;8.504;2023-12-14T15:37:16;7.10;99.90
73939;DHT22;62291;47.554;8.504;2023-12-14T15:39:42;7.10;99.90
73939;DHT22;62291;47.554;8.504;2023-12-14T15:42:16;7.10;99.90
73939;DHT22;62291;47.554;8.504;2023-12-14T15:44:42;7.10;99.90
73939;DHT22;62291;47.554;8.504;2023-12-14T15:47:12;7.10;99.90
73939;DHT22;62291;47.554;8.504;2023-12-14T15:49:38;7.10;99.90